Time;durP1;ratioP1;P1;durP2;ratioP2;P2;SDS_P1;SDS_P2;PMS_P1;PMS_P2;Temp;Humidity;BMP_temperature;BMP_pressure;BME280_temperature;BME280_humidity;BME280_pressure;Samples;Min_cycle;Max_cycle;Signal;HPM_P1;HPM_P2
2022/10/20 00:00:58;;;;;;;15.77;10.93;;;13.60;99.90;;;;;;5052353;28;20239;-83
2022/10/20 00:03:24;;;;;;;18.65;10.93;;;13.70;99.90;;;;;;5041921;28;20267;-76
2022/10/20 00:05:50;;;;;;;13.43;10.65;;;13.90;99.90;;;;;;5039738;28;20606;-89
2022/10/20 00:08:16;;;;;;;19.98;12.30;;;13.80;99.90;;;;;;5040264;28;20210;-76
2022/10/20 00:10:41;;;;;;;16.17;12.18;;;13.80;99.90;;;;;;5040419;28;20555;-76
2022/10/20 00:13:07;;;;;;;15.38;10.85;;;13.60;99.90;;;;;;5039162;28;20182;-76
2022/10/20 00:15:33;;;;;;;24.20;11.65;;;13.50;99.90;;;;;;5040876;28;20557;-91
2022/10/20 00:17:59;;;;;;;31.25;11.73;;;13.50;99.90;;;;;;5038338;28;20180;-86
2022/10/20 00:20:24;;;;;;;19.65;11.35;;;13.50;99.90;;;;;;5038292;28;20246;-77
2022/10/20 00:22:50;;;;;;;16.88;10.70;;;13.50;99.90;;;;;;5039462;28;20203;-77
2022/10/20 00:25:16;;;;;;;19.23;12.13;;;13.60;99.90;;;;;;5040389;28;20159;-77
2022/10/20 00:27:41;;;;;;;22.27;12.88;;;13.60;99.90;;;;;;5040425;28;20182;-90
2022/10/20 00:30:07;;;;;;;17.15;11.48;;;13.50;99.90;;;;;;5039480;28;20197;-79
2022/10/20 00:32:33;;;;;;;19.88;12.98;;;13.30;99.90;;;;;;5040245;28;20198;-78
2022/10/20 00:34:58;;;;;;;27.23;11.80;;;13.20;99.90;;;;;;5040387;28;20646;-77
2022/10/20 00:37:24;;;;;;;20.58;11.07;;;13.40;99.90;;;;;;5039222;28;20215;-76
2022/10/20 00:39:50;;;;;;;18.20;10.88;;;13.50;99.90;;;;;;5040039;28;20187;-78
2022/10/20 00:42:17;;;;;;;18.45;11.90;;;13.50;99.90;;;;;;5040895;28;20230;-77
2022/10/20 00:44:56;;;;;;;21.38;10.23;;;13.60;99.90;;;;;;5039941;28;20163;-77
2022/10/20 00:47:30;;;;;;;16.70;11.98;;;13.70;99.90;;;;;;5038096;28;20202;-77
2022/10/20 00:50:04;;;;;;;11.50;10.23;;;13.70;99.90;;;;;;5039486;28;20170;-90
2022/10/20 00:52:30;;;;;;;26.92;14.32;;;13.60;99.90;;;;;;5022858;28;20217;-79
2022/10/20 00:54:57;;;;;;;24.05;14.48;;;13.60;99.90;;;;;;5038170;28;20168;-81
2022/10/20 00:57:22;;;;;;;20.15;13.40;;;13.80;99.90;;;;;;5037859;28;20542;-91
2022/10/20 00:59:49;;;;;;;20.75;13.57;;;13.90;99.90;;;;;;5036790;28;20239;-86
2022/10/20 01:02:15;;;;;;;17.17;11.20;;;13.60;99.90;;;;;;5036316;28;20192;-83
2022/10/20 01:04:42;;;;;;;19.00;11.88;;;13.50;99.90;;;;;;5036431;28;20168;-77
2022/10/20 01:07:07;;;;;;;13.80;11.15;;;13.50;99.90;;;;;;5036716;28;20188;-92
2022/10/20 01:09:33;;;;;;;15.65;11.77;;;13.20;99.90;;;;;;5037372;28;20175;-77
2022/10/20 01:12:18;;;;;;;20.52;11.57;;;13.10;99.90;;;;;;5036260;28;20171;-78
2022/10/20 01:15:12;;;;;;;16.27;11.70;;;13.30;99.90;;;;;;5036763;28;20184;-76
2022/10/20 01:17:59;;;;;;;17.35;11.30;;;13.30;99.90;;;;;;5034798;28;20171;-76
2022/10/20 01:21:04;;;;;;;13.43;9.68;;;13.10;99.90;;;;;;5039120;28;20258;-91
2022/10/20 01:23:50;;;;;;;24.92;11.70;;;13.10;99.90;;;;;;5036164;28;20200;-77
2022/10/20 01:26:51;;;;;;;16.55;10.65;;;13.10;99.90;;;;;;5034480;28;20267;-90
2022/10/20 01:29:38;;;;;;;17.20;11.07;;;12.90;99.90;;;;;;4993179;28;20199;-91
2022/10/20 01:32:45;;;;;;;16.48;11.60;;;13.00;99.90;;;;;;5030679;28;20179;-77
2022/10/20 01:35:27;;;;;;;19.17;12.05;;;13.00;99.90;;;;;;5012216;28;20187;-91
2022/10/20 01:38:16;;;;;;;23.88;12.25;;;13.00;99.90;;;;;;5033490;28;20163;-76
2022/10/20 01:40:48;;;;;;;18.38;12.13;;;13.10;99.90;;;;;;5031817;28;20744;-77
2022/10/20 01:43:17;;;;;;;20.38;12.30;;;12.90;99.90;;;;;;5033144;28;20211;-91
2022/10/20 01:45:46;;;;;;;16.67;12.32;;;12.90;99.90;;;;;;5032964;28;20184;-77
2022/10/20 01:48:15;;;;;;;18.42;12.38;;;12.90;99.90;;;;;;5031745;28;20172;-76
2022/10/20 01:50:42;;;;;;;24.00;12.43;;;12.80;99.90;;;;;;5032835;28;20567;-77
2022/10/20 01:53:08;;;;;;;17.63;12.30;;;12.90;99.90;;;;;;5033146;28;20247;-91
2022/10/20 01:55:37;;;;;;;21.98;12.15;;;12.90;99.90;;;;;;5033060;28;20183;-88
2022/10/20 01:58:05;;;;;;;22.92;11.63;;;13.00;99.90;;;;;;5032753;28;20215;-77
2022/10/20 02:00:34;;;;;;;19.80;12.13;;;13.00;99.90;;;;;;5033047;28;20172;-77
2022/10/20 02:03:14;;;;;;;20.65;12.85;;;13.20;99.90;;;;;;5032333;28;20203;-86
2022/10/20 02:06:26;;;;;;;25.35;12.40;;;13.20;99.90;;;;;;5032700;28;20188;-77
2022/10/20 02:08:55;;;;;;;16.17;12.43;;;13.20;99.90;;;;;;5001095;28;20195;-89
2022/10/20 02:11:30;;;;;;;19.08;12.60;;;13.10;99.90;;;;;;5032878;28;20174;-78
2022/10/20 02:13:57;;;;;;;16.42;12.50;;;13.00;99.90;;;;;;5033190;28;20263;-77
2022/10/20 02:16:28;;;;;;;22.13;12.75;;;12.90;99.90;;;;;;5036835;28;20192;-77
2022/10/20 02:18:55;;;;;;;22.60;12.80;;;13.10;99.90;;;;;;5037173;28;20163;-77
2022/10/20 02:21:20;;;;;;;22.50;12.82;;;13.00;99.90;;;;;;5036913;28;20510;-89
2022/10/20 02:23:49;;;;;;;20.20;13.40;;;13.00;99.90;;;;;;5035830;28;20352;-91
2022/10/20 02:26:18;;;;;;;24.52;12.65;;;13.10;99.90;;;;;;5036687;28;20194;-77
2022/10/20 02:28:51;;;;;;;18.02;12.98;;;13.00;99.90;;;;;;5040120;28;20162;-90
2022/10/20 02:31:17;;;;;;;23.33;13.10;;;13.10;99.90;;;;;;5038736;28;20172;-92
2022/10/20 02:33:44;;;;;;;25.02;14.02;;;12.90;99.90;;;;;;5044632;28;20157;-77
2022/10/20 02:36:18;;;;;;;20.20;12.85;;;12.90;99.90;;;;;;5047672;28;20195;-82
2022/10/20 02:38:44;;;;;;;23.52;12.68;;;12.80;99.90;;;;;;5056340;28;20175;-77
2022/10/20 02:41:10;;;;;;;25.08;13.13;;;13.00;99.90;;;;;;5043609;28;20271;-77
2022/10/20 02:43:36;;;;;;;25.10;13.43;;;13.00;99.90;;;;;;5042528;28;20246;-76
2022/10/20 02:46:01;;;;;;;18.20;12.90;;;13.00;99.90;;;;;;5037795;28;20606;-76
2022/10/20 02:48:27;;;;;;;19.05;13.02;;;13.00;99.90;;;;;;5035494;28;20602;-78
2022/10/20 02:50:52;;;;;;;23.13;12.98;;;12.90;99.90;;;;;;5035407;28;20266;-77
2022/10/20 02:53:18;;;;;;;22.45;12.13;;;12.80;99.90;;;;;;5036213;28;20172;-77
2022/10/20 02:55:43;;;;;;;20.15;11.93;;;12.80;99.90;;;;;;5036489;28;20199;-77
2022/10/20 02:58:09;;;;;;;14.55;12.40;;;12.80;99.90;;;;;;5036334;28;20176;-76
2022/10/20 03:00:35;;;;;;;18.38;13.45;;;13.00;99.90;;;;;;5037200;28;20174;-90
2022/10/20 03:03:00;;;;;;;22.70;13.85;;;13.10;99.90;;;;;;5037544;28;20207;-81
2022/10/20 03:05:26;;;;;;;24.65;13.50;;;13.10;99.90;;;;;;5037442;28;20251;-76
2022/10/20 03:07:52;;;;;;;29.65;12.98;;;13.10;99.90;;;;;;5040625;28;20222;-79
2022/10/20 03:10:18;;;;;;;22.30;13.30;;;13.00;99.90;;;;;;5037353;28;20215;-87
2022/10/20 03:12:44;;;;;;;24.15;13.13;;;13.00;99.90;;;;;;5036968;28;20634;-90
2022/10/20 03:15:10;;;;;;;14.48;12.98;;;13.00;99.90;;;;;;5036984;28;20188;-76
2022/10/20 03:17:36;;;;;;;17.05;12.57;;;13.10;99.90;;;;;;5037117;28;20210;-76
2022/10/20 03:20:01;;;;;;;21.42;13.38;;;13.20;99.90;;;;;;5037807;28;20164;-75
2022/10/20 03:22:27;;;;;;;18.48;13.18;;;13.30;99.90;;;;;;5037282;28;20694;-88
2022/10/20 03:24:53;;;;;;;16.77;12.38;;;13.40;99.90;;;;;;5037098;28;20176;-78
2022/10/20 03:27:18;;;;;;;20.17;13.57;;;13.30;99.90;;;;;;5037449;28;20195;-77
2022/10/20 03:29:44;;;;;;;18.85;11.48;;;13.40;99.90;;;;;;5036140;28;20174;-78
2022/10/20 03:32:09;;;;;;;32.17;12.32;;;13.40;99.90;;;;;;5037716;28;20160;-91
2022/10/20 03:34:35;;;;;;;26.65;12.27;;;13.40;99.90;;;;;;5037471;28;20581;-77
2022/10/20 03:37:01;;;;;;;19.90;11.50;;;13.30;99.90;;;;;;5037110;28;20270;-82
2022/10/20 03:39:26;;;;;;;26.10;12.07;;;13.50;99.90;;;;;;5037524;28;20163;-77
2022/10/20 03:41:53;;;;;;;17.17;11.63;;;13.60;99.90;;;;;;5036322;28;20171;-82
2022/10/20 03:44:19;;;;;;;29.77;13.73;;;13.50;99.90;;;;;;5037058;28;20172;-90
2022/10/20 03:46:44;;;;;;;15.57;11.82;;;13.50;99.90;;;;;;5035650;28;20519;-79
2022/10/20 03:49:10;;;;;;;19.92;12.50;;;13.50;99.90;;;;;;5036905;28;20214;-89
2022/10/20 03:51:36;;;;;;;23.75;12.27;;;13.50;99.90;;;;;;5035220;28;20179;-91
2022/10/20 03:54:01;;;;;;;17.20;11.15;;;13.40;99.90;;;;;;5036851;28;20179;-76
2022/10/20 03:56:27;;;;;;;20.23;11.90;;;13.30;99.90;;;;;;5036296;28;20215;-78
2022/10/20 03:58:52;;;;;;;21.05;12.93;;;13.20;99.90;;;;;;5036465;28;20192;-90
2022/10/20 04:01:21;;;;;;;21.60;13.23;;;13.10;99.90;;;;;;5035618;28;20626;-91
2022/10/20 04:03:49;;;;;;;18.95;11.98;;;13.00;99.90;;;;;;5042285;28;20678;-77
2022/10/20 04:06:15;;;;;;;20.13;11.50;;;13.00;99.90;;;;;;5035874;28;20226;-89
2022/10/20 04:08:40;;;;;;;21.05;15.95;;;13.00;99.90;;;;;;5036103;28;20650;-91
2022/10/20 04:11:06;;;;;;;18.00;12.77;;;13.10;99.90;;;;;;5038138;28;20222;-87
2022/10/20 04:13:32;;;;;;;27.98;11.73;;;13.20;99.90;;;;;;5035231;28;20672;-77
2022/10/20 04:15:57;;;;;;;19.23;12.27;;;13.20;99.90;;;;;;5035416;28;20760;-77
2022/10/20 04:18:23;;;;;;;25.77;12.93;;;13.50;99.90;;;;;;5035873;28;20226;-77
2022/10/20 04:20:48;;;;;;;19.25;12.60;;;13.50;99.90;;;;;;5035876;28;20164;-77
2022/10/20 04:23:14;;;;;;;25.83;12.50;;;13.20;99.90;;;;;;5036073;28;20246;-77
2022/10/20 04:25:47;;;;;;;18.10;12.02;;;13.00;99.90;;;;;;5035879;28;20195;-89
2022/10/20 04:28:17;;;;;;;16.85;11.73;;;13.00;99.90;;;;;;5036610;28;20164;-87
2022/10/20 04:30:44;;;;;;;19.92;12.27;;;13.00;99.90;;;;;;5035477;28;20235;-89
2022/10/20 04:33:11;;;;;;;19.55;12.57;;;13.10;99.90;;;;;;5034021;28;20164;-76
2022/10/20 04:35:36;;;;;;;22.70;12.25;;;13.20;99.90;;;;;;5033022;28;20199;-90
2022/10/20 04:38:02;;;;;;;13.75;12.27;;;13.10;99.90;;;;;;5033305;28;20164;-77
2022/10/20 04:40:28;;;;;;;13.68;12.25;;;12.90;99.90;;;;;;5034071;28;20186;-76
2022/10/20 04:42:53;;;;;;;14.75;12.02;;;12.70;99.90;;;;;;5034099;28;20205;-76
2022/10/20 04:45:19;;;;;;;17.98;12.82;;;12.70;99.90;;;;;;5033809;28;20642;-78
2022/10/20 04:47:44;;;;;;;28.67;11.88;;;12.90;99.90;;;;;;5033974;28;20167;-77
2022/10/20 04:50:10;;;;;;;20.75;12.45;;;12.90;99.90;;;;;;5033802;28;20179;-76
2022/10/20 04:52:35;;;;;;;22.13;12.65;;;13.10;99.90;;;;;;5034027;28;20652;-76
2022/10/20 04:55:01;;;;;;;28.40;13.77;;;13.00;99.90;;;;;;5034089;28;20160;-79
2022/10/20 04:57:27;;;;;;;19.50;12.00;;;13.20;99.90;;;;;;5033530;28;20274;-76
2022/10/20 04:59:52;;;;;;;13.32;11.35;;;13.20;99.90;;;;;;5033619;28;20250;-78
2022/10/20 05:02:18;;;;;;;15.90;11.60;;;13.10;99.90;;;;;;5033494;28;20286;-91
2022/10/20 05:04:43;;;;;;;18.98;12.23;;;13.20;99.90;;;;;;5033485;28;20164;-77
2022/10/20 05:07:09;;;;;;;17.10;12.55;;;13.10;99.90;;;;;;5033428;28;20214;-76
2022/10/20 05:09:35;;;;;;;26.05;11.50;;;13.20;99.90;;;;;;5033388;28;20175;-76
2022/10/20 05:12:00;;;;;;;20.15;11.70;;;13.30;99.90;;;;;;5037168;28;20172;-76
2022/10/20 05:14:26;;;;;;;12.98;10.77;;;13.30;99.90;;;;;;5048614;28;20207;-77
2022/10/20 05:16:51;;;;;;;21.65;12.52;;;13.30;99.90;;;;;;5038043;28;20183;-76
2022/10/20 05:19:18;;;;;;;17.10;11.02;;;13.40;99.90;;;;;;5032637;28;20175;-76
2022/10/20 05:21:44;;;;;;;17.40;11.70;;;13.50;99.90;;;;;;5033389;28;20254;-76
2022/10/20 05:24:12;;;;;;;22.45;12.13;;;13.60;99.90;;;;;;5033255;28;20282;-90
2022/10/20 05:26:38;;;;;;;26.58;11.52;;;13.60;99.90;;;;;;5033074;28;20203;-77
2022/10/20 05:29:05;;;;;;;23.50;11.50;;;13.60;99.90;;;;;;5032862;28;20529;-87
2022/10/20 05:31:34;;;;;;;15.20;10.32;;;13.50;99.90;;;;;;5031729;28;20190;-77
2022/10/20 05:34:00;;;;;;;20.63;12.30;;;13.50;99.90;;;;;;5033347;28;20537;-84
2022/10/20 05:36:26;;;;;;;21.25;11.18;;;13.60;99.90;;;;;;5033073;28;20184;-77
2022/10/20 05:38:54;;;;;;;17.75;10.98;;;13.50;99.90;;;;;;5033213;28;20223;-76
2022/10/20 05:41:25;;;;;;;20.95;12.02;;;13.60;99.90;;;;;;5033177;28;20375;-92
2022/10/20 05:43:56;;;;;;;21.50;11.63;;;13.60;99.90;;;;;;5032836;28;20211;-76
2022/10/20 05:46:22;;;;;;;25.73;12.32;;;13.60;99.90;;;;;;5032268;28;20695;-76
2022/10/20 05:48:51;;;;;;;16.88;11.27;;;13.50;99.90;;;;;;5033151;28;20172;-76
2022/10/20 05:51:18;;;;;;;22.10;11.52;;;13.70;99.90;;;;;;5032725;28;20160;-78
2022/10/20 05:53:45;;;;;;;16.70;10.65;;;13.60;99.90;;;;;;5031809;28;20713;-81
2022/10/20 05:56:14;;;;;;;17.10;11.20;;;13.60;99.90;;;;;;5032698;28;20183;-82
2022/10/20 05:58:41;;;;;;;22.95;10.95;;;13.70;99.90;;;;;;5032459;28;20538;-76
2022/10/20 06:01:22;;;;;;;22.35;11.23;;;13.70;99.90;;;;;;5032648;28;20175;-77
2022/10/20 06:03:58;;;;;;;25.02;10.32;;;13.80;99.90;;;;;;5032305;28;20204;-76
2022/10/20 06:06:26;;;;;;;19.83;11.73;;;13.80;99.90;;;;;;5032554;28;20176;-89
2022/10/20 06:08:52;;;;;;;26.13;10.95;;;13.80;99.90;;;;;;5032403;28;20587;-77
2022/10/20 06:11:19;;;;;;;31.60;11.32;;;13.70;99.90;;;;;;5032143;28;20164;-76
2022/10/20 06:13:45;;;;;;;34.92;11.57;;;13.70;99.90;;;;;;5031201;28;20653;-82
2022/10/20 06:16:13;;;;;;;27.90;11.13;;;13.80;99.90;;;;;;5031863;28;20187;-80
2022/10/20 06:18:42;;;;;;;18.27;10.75;;;13.90;99.90;;;;;;5032663;28;20222;-77
2022/10/20 06:21:13;;;;;;;27.95;11.68;;;13.90;99.90;;;;;;5031614;28;20645;-76
2022/10/20 06:23:39;;;;;;;36.90;11.88;;;14.00;99.90;;;;;;5032228;28;20670;-76
2022/10/20 06:26:10;;;;;;;16.67;10.27;;;14.10;99.90;;;;;;5032523;28;20262;-89
2022/10/20 06:28:37;;;;;;;32.72;11.20;;;14.10;99.90;;;;;;5032662;28;20203;-76
2022/10/20 06:31:20;;;;;;;18.40;10.55;;;14.20;99.90;;;;;;5032138;28;20160;-84
2022/10/20 06:33:46;;;;;;;23.98;10.98;;;14.20;99.90;;;;;;5032053;28;20167;-77
2022/10/20 06:36:12;;;;;;;21.80;10.88;;;14.20;99.90;;;;;;5030878;28;20196;-78
2022/10/20 06:38:39;;;;;;;30.20;10.48;;;14.20;99.90;;;;;;5032128;28;20194;-76
2022/10/20 06:41:06;;;;;;;16.55;10.20;;;14.40;99.90;;;;;;5030933;28;20262;-89
2022/10/20 06:43:32;;;;;;;16.63;9.88;;;14.50;99.90;;;;;;5032110;28;20688;-81
2022/10/20 06:46:00;;;;;;;20.38;10.07;;;14.50;99.90;;;;;;5030698;28;20187;-75
2022/10/20 06:48:27;;;;;;;17.75;9.90;;;14.60;99.90;;;;;;5031735;28;20167;-84
2022/10/20 06:51:00;;;;;;;22.30;11.27;;;14.60;99.90;;;;;;5030951;28;20225;-90
2022/10/20 06:53:28;;;;;;;21.67;9.77;;;14.60;99.90;;;;;;5014590;28;20275;-83
2022/10/20 06:56:11;;;;;;;19.02;10.55;;;14.70;99.90;;;;;;5032067;28;20184;-85
2022/10/20 06:58:38;;;;;;;33.22;10.40;;;14.80;99.90;;;;;;5026233;28;20261;-86
2022/10/20 07:01:10;;;;;;;18.25;10.82;;;14.80;99.90;;;;;;5034059;28;20520;-82
2022/10/20 07:03:37;;;;;;;25.48;10.68;;;15.00;99.90;;;;;;5035928;28;20265;-79
2022/10/20 07:06:05;;;;;;;15.15;8.48;;;15.00;99.90;;;;;;5036519;28;20192;-77
2022/10/20 07:08:32;;;;;;;14.23;7.82;;;15.10;99.90;;;;;;5035337;28;20175;-81
2022/10/20 07:11:03;;;;;;;10.35;7.25;;;15.10;99.90;;;;;;5035938;28;20205;-79
2022/10/20 07:13:29;;;;;;;13.02;7.68;;;15.20;99.90;;;;;;5035945;28;20195;-83
2022/10/20 07:15:56;;;;;;;24.58;6.75;;;15.30;99.90;;;;;;5034692;28;20186;-88
2022/10/20 07:18:23;;;;;;;10.07;6.80;;;15.50;99.90;;;;;;5035485;28;20171;-76
2022/10/20 07:20:48;;;;;;;11.57;6.60;;;15.60;99.90;;;;;;5035308;28;20531;-84
2022/10/20 07:23:14;;;;;;;9.27;6.85;;;15.70;99.90;;;;;;5034383;28;20200;-83
2022/10/20 07:25:40;;;;;;;6.70;5.90;;;15.70;99.90;;;;;;5034335;28;20191;-77
2022/10/20 07:28:05;;;;;;;10.73;6.40;;;15.80;99.90;;;;;;5035471;28;20634;-77
2022/10/20 07:30:31;;;;;;;17.67;6.32;;;15.80;99.90;;;;;;5034949;28;20172;-77
2022/10/20 07:32:56;;;;;;;14.35;6.07;;;15.80;99.90;;;;;;5034458;28;20205;-76
2022/10/20 07:35:22;;;;;;;10.10;5.60;;;15.90;99.90;;;;;;5033208;28;20171;-76
2022/10/20 07:37:49;;;;;;;11.38;6.25;;;16.00;99.90;;;;;;5033650;28;20243;-88
2022/10/20 07:40:14;;;;;;;6.63;6.07;;;16.10;99.90;;;;;;5034757;28;20191;-76
2022/10/20 07:42:40;;;;;;;21.48;6.85;;;16.00;99.90;;;;;;5034410;28;20254;-76
2022/10/20 07:45:06;;;;;;;10.25;6.25;;;16.20;99.90;;;;;;5036059;28;20183;-76
2022/10/20 07:47:32;;;;;;;10.02;6.40;;;16.20;99.90;;;;;;5044740;28;20180;-77
2022/10/20 07:49:57;;;;;;;12.35;6.30;;;16.20;99.90;;;;;;5044115;28;20262;-76
2022/10/20 07:52:23;;;;;;;15.48;6.50;;;16.20;99.90;;;;;;5034987;28;20238;-78
2022/10/20 07:54:49;;;;;;;17.08;6.28;;;16.30;99.90;;;;;;5034388;28;20179;-77
2022/10/20 07:57:14;;;;;;;8.88;6.55;;;16.30;99.90;;;;;;5033935;28;20242;-76
2022/10/20 07:59:40;;;;;;;14.80;6.78;;;16.30;99.90;;;;;;5034147;28;20211;-76
2022/10/20 08:02:06;;;;;;;8.57;5.63;;;16.40;99.90;;;;;;5033873;28;20164;-75
2022/10/20 08:04:31;;;;;;;8.57;6.00;;;16.50;99.90;;;;;;5034249;28;20172;-75
2022/10/20 08:06:58;;;;;;;11.48;6.57;;;16.80;99.90;;;;;;5034139;28;20184;-76
2022/10/20 08:09:24;;;;;;;10.50;6.55;;;17.00;99.90;;;;;;5034374;28;20641;-76
2022/10/20 08:11:50;;;;;;;20.38;6.93;;;17.10;99.90;;;;;;5033310;28;20171;-75
2022/10/20 08:14:16;;;;;;;12.82;6.57;;;17.20;99.90;;;;;;5034250;28;20184;-76
2022/10/20 08:16:41;;;;;;;6.80;6.20;;;17.20;99.90;;;;;;5033838;28;20191;-76
2022/10/20 08:19:07;;;;;;;9.18;7.05;;;17.30;99.90;;;;;;5034225;28;20221;-75
2022/10/20 08:21:32;;;;;;;12.23;7.05;;;17.40;99.90;;;;;;5032850;28;20199;-76
2022/10/20 08:23:58;;;;;;;18.65;6.68;;;17.40;99.90;;;;;;5034170;28;20207;-75
2022/10/20 08:26:25;;;;;;;13.13;6.97;;;17.40;99.90;;;;;;5033876;28;20220;-76
2022/10/20 08:28:53;;;;;;;14.27;6.40;;;17.40;99.90;;;;;;5033745;28;20180;-76
2022/10/20 08:31:19;;;;;;;15.93;7.40;;;17.30;99.90;;;;;;5033941;28;20649;-76
2022/10/20 08:33:45;;;;;;;10.85;7.10;;;17.10;99.90;;;;;;5032705;28;20171;-76
2022/10/20 08:36:13;;;;;;;7.15;6.38;;;17.00;99.90;;;;;;5033890;28;20279;-78
2022/10/20 08:38:39;;;;;;;14.32;6.95;;;17.00;99.90;;;;;;5033707;28;20638;-76
2022/10/20 08:41:13;;;;;;;20.02;6.55;;;16.90;99.90;;;;;;5033583;28;20160;-77
2022/10/20 08:43:40;;;;;;;12.27;7.13;;;17.00;99.90;;;;;;5033712;28;20672;-76
2022/10/20 08:46:11;;;;;;;20.85;8.60;;;16.60;99.90;;;;;;5032159;28;20195;-77
2022/10/20 08:48:38;;;;;;;18.10;8.80;;;16.50;99.90;;;;;;5033529;28;20201;-76
2022/10/20 08:51:03;;;;;;;12.05;8.23;;;16.60;99.90;;;;;;5032491;28;20254;-77
2022/10/20 08:53:37;;;;;;;17.25;8.48;;;16.60;99.90;;;;;;5033560;28;20168;-77
2022/10/20 08:56:03;;;;;;;15.77;8.32;;;16.70;99.90;;;;;;5033653;28;20196;-77
2022/10/20 08:58:28;;;;;;;24.63;8.45;;;16.70;99.90;;;;;;5033559;28;20250;-77
2022/10/20 09:00:56;;;;;;;16.55;8.65;;;16.80;99.90;;;;;;5033736;28;20218;-89
2022/10/20 09:03:28;;;;;;;8.70;7.85;;;16.70;99.90;;;;;;5032147;28;20204;-76
2022/10/20 09:06:00;;;;;;;15.30;8.02;;;16.70;99.90;;;;;;5031994;28;20199;-77
2022/10/20 09:08:29;;;;;;;18.85;8.63;;;16.80;99.90;;;;;;5032255;28;20168;-77
2022/10/20 09:10:55;;;;;;;12.98;8.38;;;16.90;99.90;;;;;;5033640;28;20505;-77
2022/10/20 09:13:29;;;;;;;18.55;9.23;;;17.00;99.90;;;;;;5033100;28;20183;-77
2022/10/20 09:16:05;;;;;;;20.67;8.77;;;16.90;99.90;;;;;;5033174;28;20259;-77
2022/10/20 09:18:33;;;;;;;19.85;8.65;;;16.80;99.90;;;;;;5033354;28;20644;-77
2022/10/20 09:21:23;;;;;;;14.82;10.10;;;16.80;99.90;;;;;;5033077;28;20209;-77
2022/10/20 09:23:59;;;;;;;21.95;8.35;;;16.80;99.90;;;;;;5031087;28;20217;-78
2022/10/20 09:26:34;;;;;;;11.00;7.93;;;16.80;99.90;;;;;;5033801;28;20186;-78
2022/10/20 09:29:20;;;;;;;17.33;8.38;;;16.80;99.90;;;;;;5034061;28;20195;-88
2022/10/20 09:31:48;;;;;;;16.25;8.27;;;16.80;99.90;;;;;;5032941;28;20164;-77
2022/10/20 09:34:26;;;;;;;23.90;8.90;;;16.80;99.90;;;;;;5033152;28;20176;-78
2022/10/20 09:37:15;;;;;;;11.60;7.50;;;16.70;99.90;;;;;;5032909;28;20261;-77
2022/10/20 09:39:58;;;;;;;14.52;8.85;;;16.70;99.90;;;;;;5032642;28;20204;-77
2022/10/20 09:42:38;;;;;;;12.82;8.52;;;16.70;99.90;;;;;;5032530;28;20669;-77
2022/10/20 09:45:20;;;;;;;10.38;8.10;;;16.70;99.90;;;;;;5033166;28;20179;-93
2022/10/20 09:47:49;;;;;;;13.25;8.32;;;16.80;99.90;;;;;;5032591;28;20192;-77
2022/10/20 09:50:37;;;;;;;12.40;8.68;;;16.80;99.90;;;;;;5032671;28;20172;-77
2022/10/20 09:53:06;;;;;;;9.45;7.90;;;16.80;99.90;;;;;;5032524;28;20648;-78
2022/10/20 09:55:35;;;;;;;16.98;7.65;;;16.60;99.90;;;;;;5032132;28;20195;-77
2022/10/20 09:58:03;;;;;;;9.32;7.63;;;16.50;99.90;;;;;;5032404;28;20168;-77
2022/10/20 10:00:34;;;;;;;13.85;7.53;;;16.50;99.90;;;;;;5032655;28;20661;-77
2022/10/20 10:03:21;;;;;;;17.38;8.48;;;16.60;99.90;;;;;;5032598;28;20211;-77
2022/10/20 10:05:56;;;;;;;8.57;7.68;;;16.90;99.90;;;;;;5032357;28;20184;-77
2022/10/20 10:08:24;;;;;;;11.25;7.22;;;17.00;99.90;;;;;;5032717;28;20179;-79
2022/10/20 10:11:05;;;;;;;14.52;8.30;;;17.00;99.90;;;;;;5032711;28;20210;-77
2022/10/20 10:13:39;;;;;;;12.93;8.10;;;17.10;99.90;;;;;;5032290;28;20557;-77
2022/10/20 10:16:10;;;;;;;8.88;7.00;;;17.20;99.90;;;;;;5032132;28;20205;-77
2022/10/20 10:18:37;;;;;;;8.18;7.35;;;17.30;99.90;;;;;;5034654;28;20263;-77
2022/10/20 10:21:09;;;;;;;12.60;7.70;;;17.60;99.90;;;;;;5033614;28;20171;-77
2022/10/20 10:23:49;;;;;;;9.45;7.28;;;17.90;99.90;;;;;;5041305;28;20743;-76
2022/10/20 10:26:44;;;;;;;13.35;7.32;;;18.00;99.90;;;;;;5033222;28;20665;-77
2022/10/20 10:29:25;;;;;;;11.18;7.00;;;18.20;99.90;;;;;;5032099;28;20175;-77
2022/10/20 10:31:57;;;;;;;13.30;6.43;;;18.40;99.90;;;;;;5034212;28;20250;-78
2022/10/20 10:34:33;;;;;;;14.50;6.32;;;18.40;99.90;;;;;;5039110;28;20175;-80
2022/10/20 10:36:59;;;;;;;10.63;5.88;;;18.50;99.90;;;;;;5036203;28;20241;-78
2022/10/20 10:39:25;;;;;;;12.90;6.57;;;18.30;99.90;;;;;;5036328;28;20291;-78
2022/10/20 10:42:17;;;;;;;7.05;4.70;;;18.10;99.90;;;;;;5036464;28;20180;-78
2022/10/20 10:44:52;;;;;;;12.38;5.97;;;18.10;99.90;;;;;;5037304;28;20183;-88
2022/10/20 10:47:47;;;;;;;6.97;6.10;;;18.40;99.90;;;;;;5036533;28;20584;-82
2022/10/20 10:50:15;;;;;;;14.25;5.50;;;18.80;99.90;;;;;;5036045;28;20168;-78
2022/10/20 10:52:56;;;;;;;12.55;4.80;;;18.90;99.90;;;;;;5034505;28;20188;-79
2022/10/20 10:55:32;;;;;;;14.18;6.32;;;18.90;99.90;;;;;;5036684;28;20168;-77
2022/10/20 10:58:05;;;;;;;15.43;6.15;;;19.00;99.90;;;;;;5035683;28;20175;-78
2022/10/20 11:00:53;;;;;;;9.75;7.10;;;18.90;99.90;;;;;;5034367;28;20179;-78
2022/10/20 11:03:40;;;;;;;10.88;5.63;;;18.80;99.90;;;;;;5033536;28;20568;-78
2022/10/20 11:06:11;;;;;;;9.52;6.20;;;18.60;99.90;;;;;;5026147;28;20554;-78
2022/10/20 11:08:43;;;;;;;7.82;5.97;;;18.50;99.90;;;;;;5035132;28;20230;-77
2022/10/20 11:11:28;;;;;;;21.35;6.47;;;18.50;99.90;;;;;;5036517;28;20172;-78
2022/10/20 11:13:59;;;;;;;20.88;6.13;;;18.50;99.90;;;;;;5029597;28;20192;-85
2022/10/20 11:16:34;;;;;;;16.15;6.03;;;18.60;99.90;;;;;;5021832;28;20188;-80
2022/10/20 11:19:11;;;;;;;10.85;6.20;;;18.70;99.90;;;;;;5034147;28;20215;-86
2022/10/20 11:21:45;;;;;;;7.57;5.28;;;19.10;99.90;;;;;;5032568;28;20183;-78
2022/10/20 11:24:43;;;;;;;8.85;6.30;;;19.40;99.90;;;;;;5034981;28;20222;-78
2022/10/20 11:27:23;;;;;;;7.93;5.40;;;19.70;99.90;;;;;;5035261;28;20198;-83
2022/10/20 11:29:51;;;;;;;21.10;6.75;;;19.90;99.90;;;;;;5034837;28;20172;-81
2022/10/20 11:32:28;;;;;;;10.77;5.85;;;20.00;99.90;;;;;;5014979;28;20172;-91
2022/10/20 11:35:15;;;;;;;7.47;6.13;;;19.80;99.90;;;;;;5015739;28;20168;-78
2022/10/20 11:38:01;;;;;;;9.30;5.05;;;19.60;99.90;;;;;;5015246;28;20184;-79
2022/10/20 11:40:31;;;;;;;10.40;4.80;;;19.60;99.90;;;;;;5015429;28;20242;-77
2022/10/20 11:43:03;;;;;;;11.40;5.05;;;19.80;99.90;;;;;;5015952;28;20258;-78
2022/10/20 11:45:56;;;;;;;8.82;4.22;;;20.10;99.90;;;;;;5014903;28;20165;-78
2022/10/20 11:48:24;;;;;;;11.68;4.60;;;20.30;99.90;;;;;;5011052;28;20285;-77
2022/10/20 11:50:57;;;;;;;7.93;4.22;;;20.10;99.90;;;;;;5013376;28;20259;-77
2022/10/20 11:53:49;;;;;;;20.50;4.53;;;20.10;99.90;;;;;;4988485;28;20366;-78
2022/10/20 11:56:40;;;;;;;7.65;3.75;;;20.10;99.90;;;;;;5014668;28;20211;-81
2022/10/20 11:59:15;;;;;;;12.82;4.18;;;20.30;99.90;;;;;;5014660;28;20643;-89
2022/10/20 12:02:12;;;;;;;6.60;3.42;;;20.40;99.90;;;;;;5013906;28;20174;-79
2022/10/20 12:04:55;;;;;;;6.38;3.70;;;20.60;99.90;;;;;;5016014;28;20223;-96
2022/10/20 12:07:49;;;;;;;6.85;3.78;;;20.50;99.90;;;;;;5015179;28;20279;-89
2022/10/20 12:10:31;;;;;;;7.55;4.05;;;20.30;99.90;;;;;;5015092;28;20169;-88
2022/10/20 12:13:25;;;;;;;8.45;4.25;;;20.40;99.90;;;;;;5015524;28;20180;-92
2022/10/20 12:15:51;;;;;;;4.63;3.10;;;20.40;99.90;;;;;;5015039;28;20283;-78
2022/10/20 12:18:35;;;;;;;7.60;3.22;;;20.30;99.90;;;;;;5015215;28;20634;-77
2022/10/20 12:21:06;;;;;;;6.82;3.20;;;20.30;99.90;;;;;;5014842;28;20169;-94
2022/10/20 12:23:44;;;;;;;9.18;2.83;;;20.30;99.90;;;;;;5015041;28;20266;-78
2022/10/20 12:26:31;;;;;;;5.80;3.05;;;20.40;99.90;;;;;;5014642;28;20196;-91
2022/10/20 12:29:02;;;;;;;11.45;5.10;;;20.40;99.90;;;;;;5016686;28;20547;-92
2022/10/20 12:32:05;;;;;;;7.75;3.35;;;20.40;99.90;;;;;;5018533;28;20165;-79
2022/10/20 12:34:41;;;;;;;8.50;3.20;;;20.40;99.90;;;;;;5017908;28;20160;-89
2022/10/20 12:37:15;;;;;;;10.25;2.88;;;20.30;99.90;;;;;;5017430;28;20192;-79
2022/10/20 12:39:41;;;;;;;6.93;2.35;;;20.30;99.90;;;;;;5017659;28;20164;-88
2022/10/20 12:42:22;;;;;;;8.13;3.22;;;20.30;99.90;;;;;;5016335;28;20168;-88
2022/10/20 12:44:49;;;;;;;10.15;3.45;;;20.10;99.90;;;;;;5016765;28;20176;-77
2022/10/20 12:47:24;;;;;;;8.40;2.55;;;20.20;99.90;;;;;;5015546;28;20184;-90
2022/10/20 12:50:05;;;;;;;7.78;2.50;;;20.10;99.90;;;;;;5014784;28;20175;-77
2022/10/20 12:52:33;;;;;;;3.60;2.40;;;20.00;99.90;;;;;;5017467;28;20218;-78